Aérodrome :
LOGIN :

S'inscrire | Disclaimer

   EN    FR    IT 

 










Légende :    VFR   VFR Marginal   IFR   IFR Intensif   IFR Très Intensif
Visi : 
Plafond : 
>= 8 km
>= 3000ft
5 à 8 km
1000 à 3000 ft
1500m à 5 km
500 à 1000 ft
800 à 1500m
200 à 500 ft
< 800m
< 200 ft
Symboles :   Orages  Brouillard  Fortes neiges  Fortes précipitations  Vent > 20 kt
SIGMETs :   Divers  Orages  Givrage  Turbulence  Onde Orograph.  Cendres Volcan.






- Altitude de l'aérodrome : 42 ft
- Code IATA : KGD


UMKK - Khrabrava - Kaliningrad

DERNIER METAR :
  • 090230Z 23006MPS 9999 SCT021 08/05 Q0993 R24/290095 NOSIG RMK QFE744/0992

METARs EXPIRÉS :
  • 090200Z 23007MPS 9999 SCT018 08/05 Q0993 R24/290095 NOSIG RMK QFE744/0992
  • 090130Z 22007MPS 9999 BKN016CB 08/06 Q0993 R24/290095 NOSIG RMK QFE744/0992
  • 090100Z 23007MPS 9999 -SHRA BKN014CB 08/06 Q0993 R24/290095 NOSIG RMK QFE744/0992
  • 090030Z 23008MPS 9999 BKN016CB 09/06 Q0993 R24/290095 NOSIG RMK QFE744/0992
  • 090000Z 23007MPS 9999 BKN017CB 09/06 Q0993 R24/290095 NOSIG RMK QFE744/0992
  • 082330Z 23008MPS 9999 BKN016CB 09/06 Q0993 R24/290095 NOSIG RMK QFE744/0992

TAF TAF UMKK
Valide du 09 à 03h jusqu'au 10 à 03h UTC


090155Z 0903/1003 22007G12MPS 9999 BKN011 SCT020CB
TEMPO 0903/0916 3100 -SHRA BKN015CB
BECMG 0914/0916 20005G10MPS
TEMPO 0921/1003 24007MPS 4000 -SHRA BKN012CB



MET'MAP, la Météo Aéronautique d'un coup d'oeil ! - Copyright ORBIFLY Décembre 2007 - Disclaimer

ORBIFLY MET'MAP TEAM :

Programmation & Développement : Alexandra Zaïnal
Sur une idée originale de : Baudouin d'Aumeries
Assistance à la programmation : Marc-Olivier Méhu
Soutien technique & logistique : Manuel Goepfert

Contact : metmap@orbifly.com




SOURCES & CREDITS :

   NOAA